Página principal
METAR-TAF:

METAR-TAF

Aeroportos :

Guilin, China

Aeroporto Internacional de Guilin Liangjiang

latitude: 25-20N, longitude: 110-18E, altura: 166 m

Observação actual do tempo

O boletim foi feito há 11 minutos, às 08:00 UTC
Vento 6 kt de sul, variando entre este e sudoeste
Temperatura 36°C
Humidade 53%
Pressão 1002 hPa
Visibilidade 10 km ou mais
Poucas nuvensa uma altura de 3300 ft

METAR: ZGKL 210800Z 18003MPS 100V220 9999 FEW033 36/25 Q1002 NOSIG

Hora: 16:11 (08:11 UTC)

Previsão

O boletim foi feito há 4 horas e 58 minutos, às 03:13 UTC
Previsão válida de 21 às 06 UTC a 22 às 06 UTC
Vento 6 kt de sul
Visibilidade: 8000 m

TAF: ZGKL 210313Z 2106/2206 17003MPS 8000 NSC TX35/2108Z TN25/2122Z

Observações e previsões do tempo de mais de 4000 aeroportos (mensagens METAR e TAF).

As estações disponíveis são os pontos amarelos e vermelhos sobre o mapa.

Mova o rato sobre o mapa para ver o nome da estação.

Depois clique no ponto para visualizar as observações e previsões meteorológicas.

Para alterar o mapa : clique nos botões verdes com uma cruz preta para aumentar o zoom; no botão verde com uma pitada de zoom; ou nas setas verdes para mapas adjacentes.


METAR-TAF: